الصفحة الرئيسية
METAR-TAF:

METAR-TAF

مطار :

ألباني, أستراليا

دائرة عرض: 34-56-36S, خط طول: 117-48-32E, ارتفاع: 71 متر

مراقبة الطقس الحالي

تاريخ ووقت الإصدار 1ساعة و 7 دقيقة قبل الساعة 19:00UTC
ريح 13 عقدة من الغرب/الجنوب الغربي
درجة الحرارة 11°درجة مئوية
الرطوبة 71%
ضغط 1012 hPa
الرؤية 10 كم أو أكثر
غيوم متفرقة على ارتفاع 3300 قدم
غيوم متفرقة على ارتفاع 4600 قدم
غيوم مفككة على ارتفاع 6200 قدم

METAR: YABA 251900Z AUTO 24013KT 9999 // SCT033 SCT046 BKN062 11/06 Q1012

زمن: 04:07 (20:07 UTC)


TAF: مفقودة

أرصاد الطقس والتوقعات من أكثر من 4000 مطار (تقارير الطقس للمطار METAR والتنبؤ بالطقس بالمطارTAF).

المحطات المتاحة هي النقط الصفراء والحمراء على الخريطة.

حرك المؤشر فوق النقطة لمعرفة اسم المحطة.

ثم انقر لمعرفة أرصاد وتوقعات الطقس.

لتغيير الخارطة: اضغط على الأزرار الخضراء مع رمز الصليب الأسود للتكبير. على الزر الأخضر مع شرطة للتصغير، أو على الأسهم الخضراء للخرائط المجاورة.


METAR-TAF: